Sandy Korner, California
Current Conditions -  °F | °C
As of 3:56 AM on Monday 20 Oct 2014 (Local Time) from KNJK Reporting Station
Clear Clear  
Wind Chill: 68°   Ceiling: Unl
Heat Index: 68°   Visibility: 10mi
Dew Point: 52°   Wind: 5mph
Humidity: 56%   Direction: 100°E
Pressure: 29.77"   Gusts: NA
Location:  33.093°N, 116.06°W
Report Text: KNJK 201056Z AUTO 10004KT 10SM CLR 20/11 A2977 RMK AO2 SLP098 T02000111 $
Loading
Personal Weather Stations






























Interactive Weather Map
Tropical Storm Tracking
New forecast layout! Learn more

10-Day Weather Forecast

Advertisements
Track Severe Weather on mobile